sensor_id;sensor_type;location;lat;lon;timestamp;pressure;altitude;pressure_sealevel;temperature;humidity
15294;BME280;7748;52.474;13.454;2023-01-29T00:01:26;102296.63;;;0.66;100.00
15294;BME280;7748;52.474;13.454;2023-01-29T00:03:54;102295.13;;;0.59;100.00
15294;BME280;7748;52.474;13.454;2023-01-29T00:06:22;102294.69;;;0.63;100.00
15294;BME280;7748;52.474;13.454;2023-01-29T00:08:49;102292.56;;;0.59;100.00
15294;BME280;7748;52.474;13.454;2023-01-29T00:11:17;102287.28;;;0.57;100.00
15294;BME280;7748;52.474;13.454;2023-01-29T00:13:45;102293.59;;;0.52;100.00
15294;BME280;7748;52.474;13.454;2023-01-29T00:16:13;102288.19;;;0.58;100.00
15294;BME280;7748;52.474;13.454;2023-01-29T00:18:42;102284.00;;;0.58;100.00
15294;BME280;7748;52.474;13.454;2023-01-29T00:21:11;102288.78;;;0.55;100.00
15294;BME280;7748;52.474;13.454;2023-01-29T00:23:40;102285.50;;;0.56;100.00
15294;BME280;7748;52.474;13.454;2023-01-29T00:26:08;102287.72;;;0.53;100.00
15294;BME280;7748;52.474;13.454;2023-01-29T00:28:36;102294.53;;;0.61;100.00
15294;BME280;7748;52.474;13.454;2023-01-29T00:31:07;102284.88;;;0.50;100.00
15294;BME280;7748;52.474;13.454;2023-01-29T00:33:35;102286.25;;;0.64;100.00
15294;BME280;7748;52.474;13.454;2023-01-29T00:36:07;102287.63;;;0.60;100.00
15294;BME280;7748;52.474;13.454;2023-01-29T00:38:35;102270.91;;;0.64;100.00
15294;BME280;7748;52.474;13.454;2023-01-29T00:41:05;102262.34;;;0.72;100.00
15294;BME280;7748;52.474;13.454;2023-01-29T00:43:50;102263.53;;;0.67;100.00
15294;BME280;7748;52.474;13.454;2023-01-29T00:46:36;102249.69;;;0.74;100.00
15294;BME280;7748;52.474;13.454;2023-01-29T00:49:04;102246.84;;;0.79;100.00
15294;BME280;7748;52.474;13.454;2023-01-29T00:51:34;102252.13;;;0.72;100.00
15294;BME280;7748;52.474;13.454;2023-01-29T00:54:02;102259.00;;;0.65;100.00
15294;BME280;7748;52.474;13.454;2023-01-29T00:56:33;102256.63;;;0.75;100.00
15294;BME280;7748;52.474;13.454;2023-01-29T00:59:02;102240.66;;;0.69;100.00
15294;BME280;7748;52.474;13.454;2023-01-29T01:01:30;102240.66;;;0.69;100.00
15294;BME280;7748;52.474;13.454;2023-01-29T01:04:27;102247.91;;;0.73;100.00
15294;BME280;7748;52.474;13.454;2023-01-29T01:06:56;102252.69;;;0.78;100.00
15294;BME280;7748;52.474;13.454;2023-01-29T01:09:24;102250.28;;;0.71;100.00
15294;BME280;7748;52.474;13.454;2023-01-29T01:12:09;102265.06;;;0.65;100.00
15294;BME280;7748;52.474;13.454;2023-01-29T01:14:37;102254.97;;;0.67;100.00
15294;BME280;7748;52.474;13.454;2023-01-29T01:17:08;102251.50;;;0.75;100.00
15294;BME280;7748;52.474;13.454;2023-01-29T01:19:36;102255.13;;;0.77;100.00
15294;BME280;7748;52.474;13.454;2023-01-29T01:22:05;102262.31;;;0.81;100.00
15294;BME280;7748;52.474;13.454;2023-01-29T01:24:33;102256.31;;;0.72;100.00
15294;BME280;7748;52.474;13.454;2023-01-29T01:27:01;102248.81;;;0.82;100.00
15294;BME280;7748;52.474;13.454;2023-01-29T01:29:29;102256.59;;;0.83;100.00
15294;BME280;7748;52.474;13.454;2023-01-29T01:31:56;102252.69;;;0.87;100.00
15294;BME280;7748;52.474;13.454;2023-01-29T01:34:25;102249.69;;;0.82;100.00
15294;BME280;7748;52.474;13.454;2023-01-29T01:36:53;102244.91;;;0.77;100.00
15294;BME280;7748;52.474;13.454;2023-01-29T01:39:23;102250.16;;;0.70;100.00
15294;BME280;7748;52.474;13.454;2023-01-29T01:41:51;102254.81;;;0.82;100.00
15294;BME280;7748;52.474;13.454;2023-01-29T01:44:52;102246.69;;;0.69;100.00
15294;BME280;7748;52.474;13.454;2023-01-29T01:47:25;102265.34;;;0.68;100.00
15294;BME280;7748;52.474;13.454;2023-01-29T01:49:59;102268.81;;;0.51;100.00
15294;BME280;7748;52.474;13.454;2023-01-29T01:52:29;102264.44;;;0.68;100.00
15294;BME280;7748;52.474;13.454;2023-01-29T01:54:59;102267.31;;;0.71;100.00
15294;BME280;7748;52.474;13.454;2023-01-29T01:57:29;102264.75;;;0.79;100.00
15294;BME280;7748;52.474;13.454;2023-01-29T02:00:04;102253.31;;;0.76;100.00
15294;BME280;7748;52.474;13.454;2023-01-29T02:02:37;102246.69;;;0.78;100.00
15294;BME280;7748;52.474;13.454;2023-01-29T02:05:23;102246.38;;;0.83;100.00
15294;BME280;7748;52.474;13.454;2023-01-29T02:08:10;102246.41;;;0.75;100.00
15294;BME280;7748;52.474;13.454;2023-01-29T02:10:58;102236.16;;;0.75;100.00
15294;BME280;7748;52.474;13.454;2023-01-29T02:13:27;102235.56;;;0.69;100.00
15294;BME280;7748;52.474;13.454;2023-01-29T02:15:54;102227.44;;;0.73;100.00
15294;BME280;7748;52.474;13.454;2023-01-29T02:18:22;102226.50;;;0.81;100.00
15294;BME280;7748;52.474;13.454;2023-01-29T02:21:05;102232.84;;;0.76;100.00
15294;BME280;7748;52.474;13.454;2023-01-29T02:24:30;102237.34;;;0.78;100.00
15294;BME280;7748;52.474;13.454;2023-01-29T02:27:06;102225.94;;;0.75;100.00
15294;BME280;7748;52.474;13.454;2023-01-29T02:29:45;102218.56;;;0.78;100.00
15294;BME280;7748;52.474;13.454;2023-01-29T02:32:20;102228.63;;;0.85;100.00
15294;BME280;7748;52.474;13.454;2023-01-29T02:35:01;102229.84;;;0.80;100.00
15294;BME280;7748;52.474;13.454;2023-01-29T02:37:56;102216.91;;;0.70;100.00
15294;BME280;7748;52.474;13.454;2023-01-29T02:40:29;102231.78;;;0.82;100.00
15294;BME280;7748;52.474;13.454;2023-01-29T02:43:05;102223.78;;;0.88;100.00
15294;BME280;7748;52.474;13.454;2023-01-29T02:45:42;102226.69;;;0.82;100.00
15294;BME280;7748;52.474;13.454;2023-01-29T02:48:16;102225.34;;;0.86;100.00
15294;BME280;7748;52.474;13.454;2023-01-29T02:50:48;102216.59;;;0.84;100.00
15294;BME280;7748;52.474;13.454;2023-01-29T02:53:24;102210.59;;;0.75;100.00
15294;BME280;7748;52.474;13.454;2023-01-29T02:55:57;102209.38;;;0.80;100.00
15294;BME280;7748;52.474;13.454;2023-01-29T02:58:29;102203.97;;;0.77;100.00
15294;BME280;7748;52.474;13.454;2023-01-29T03:01:03;102200.03;;;0.80;100.00
15294;BME280;7748;52.474;13.454;2023-01-29T03:03:35;102205.75;;;0.87;100.00
15294;BME280;7748;52.474;13.454;2023-01-29T03:06:07;102202.75;;;0.82;100.00
15294;BME280;7748;52.474;13.454;2023-01-29T03:08:46;102205.75;;;0.78;100.00
15294;BME280;7748;52.474;13.454;2023-01-29T03:11:17;102192.53;;;0.82;100.00
15294;BME280;7748;52.474;13.454;2023-01-29T03:13:46;102202.31;;;0.86;100.00
15294;BME280;7748;52.474;13.454;2023-01-29T03:16:21;102196.25;;;0.86;100.00
15294;BME280;7748;52.474;13.454;2023-01-29T03:18:56;102201.88;;;0.81;100.00
15294;BME280;7748;52.474;13.454;2023-01-29T03:21:29;102193.41;;;0.82;100.00
15294;BME280;7748;52.474;13.454;2023-01-29T03:24:29;102197.78;;;0.83;100.00
15294;BME280;7748;52.474;13.454;2023-01-29T03:27:19;102192.53;;;0.91;100.00
15294;BME280;7748;52.474;13.454;2023-01-29T03:30:09;102196.25;;;0.94;100.00
15294;BME280;7748;52.474;13.454;2023-01-29T03:32:58;102190.41;;;0.95;100.00
15294;BME280;7748;52.474;13.454;2023-01-29T03:35:30;102194.91;;;0.89;100.00
15294;BME280;7748;52.474;13.454;2023-01-29T03:38:02;102185.75;;;0.91;100.00
15294;BME280;7748;52.474;13.454;2023-01-29T03:40:35;102183.03;;;0.90;100.00
15294;BME280;7748;52.474;13.454;2023-01-29T03:43:08;102174.16;;;0.86;100.00
15294;BME280;7748;52.474;13.454;2023-01-29T03:45:46;102171.44;;;0.93;100.00
15294;BME280;7748;52.474;13.454;2023-01-29T03:48:26;102160.16;;;0.91;100.00
15294;BME280;7748;52.474;13.454;2023-01-29T03:51:00;102160.91;;;0.90;100.00
15294;BME280;7748;52.474;13.454;2023-01-29T03:53:40;102157.88;;;0.94;100.00
15294;BME280;7748;52.474;13.454;2023-01-29T03:56:32;102155.47;;;0.96;100.00
15294;BME280;7748;52.474;13.454;2023-01-29T03:59:07;102149.16;;;0.92;100.00
15294;BME280;7748;52.474;13.454;2023-01-29T04:01:44;102136.25;;;0.91;100.00
15294;BME280;7748;52.474;13.454;2023-01-29T04:04:18;102139.69;;;0.91;100.00
15294;BME280;7748;52.474;13.454;2023-01-29T04:06:49;102129.63;;;0.84;100.00
15294;BME280;7748;52.474;13.454;2023-01-29T04:09:22;102125.06;;;0.99;100.00
15294;BME280;7748;52.474;13.454;2023-01-29T04:11:56;102123.13;;;0.96;100.00
15294;BME280;7748;52.474;13.454;2023-01-29T04:14:26;102115.09;;;1.02;100.00
15294;BME280;7748;52.474;13.454;2023-01-29T04:16:56;102101.88;;;0.97;100.00
15294;BME280;7748;52.474;13.454;2023-01-29T04:19:28;102096.50;;;0.94;100.00
15294;BME280;7748;52.474;13.454;2023-01-29T04:22:02;102103.25;;;0.94;100.00
15294;BME280;7748;52.474;13.454;2023-01-29T04:24:30;102087.72;;;1.01;100.00
15294;BME280;7748;52.474;13.454;2023-01-29T04:27:06;102082.97;;;0.95;100.00
15294;BME280;7748;52.474;13.454;2023-01-29T04:29:47;102092.56;;;0.98;100.00
15294;BME280;7748;52.474;13.454;2023-01-29T04:32:25;102087.88;;;1.02;100.00
15294;BME280;7748;52.474;13.454;2023-01-29T04:35:09;102081.72;;;1.00;100.00
15294;BME280;7748;52.474;13.454;2023-01-29T04:37:46;102086.19;;;1.12;100.00
15294;BME280;7748;52.474;13.454;2023-01-29T04:40:19;102071.63;;;1.02;100.00
15294;BME280;7748;52.474;13.454;2023-01-29T04:43:00;102076.28;;;0.97;100.00
15294;BME280;7748;52.474;13.454;2023-01-29T04:45:38;102079.91;;;0.99;100.00
15294;BME280;7748;52.474;13.454;2023-01-29T04:48:16;102087.59;;;0.99;100.00
15294;BME280;7748;52.474;13.454;2023-01-29T04:50:55;102086.53;;;0.97;100.00
15294;BME280;7748;52.474;13.454;2023-01-29T04:53:34;102081.13;;;0.94;100.00
15294;BME280;7748;52.474;13.454;2023-01-29T04:56:07;102079.44;;;1.03;100.00
15294;BME280;7748;52.474;13.454;2023-01-29T04:58:38;102086.25;;;0.94;100.00
15294;BME280;7748;52.474;13.454;2023-01-29T05:01:12;102076.69;;;1.11;100.00
15294;BME280;7748;52.474;13.454;2023-01-29T05:03:43;102082.88;;;1.13;100.00
15294;BME280;7748;52.474;13.454;2023-01-29T05:06:15;102076.41;;;1.08;100.00
15294;BME280;7748;52.474;13.454;2023-01-29T05:08:45;102077.03;;;1.05;100.00
15294;BME280;7748;52.474;13.454;2023-01-29T05:11:14;102088.94;;;1.04;100.00
15294;BME280;7748;52.474;13.454;2023-01-29T05:13:43;102097.94;;;1.10;100.00
15294;BME280;7748;52.474;13.454;2023-01-29T05:16:14;102084.34;;;1.19;100.00
15294;BME280;7748;52.474;13.454;2023-01-29T05:18:43;102080.16;;;1.11;100.00
15294;BME280;7748;52.474;13.454;2023-01-29T05:21:11;102089.84;;;1.05;100.00
15294;BME280;7748;52.474;13.454;2023-01-29T05:23:40;102098.59;;;0.98;100.00
15294;BME280;7748;52.474;13.454;2023-01-29T05:26:18;102103.44;;;0.95;100.00
15294;BME280;7748;52.474;13.454;2023-01-29T05:29:04;102098.31;;;0.95;100.00
15294;BME280;7748;52.474;13.454;2023-01-29T05:31:32;102089.84;;;0.96;100.00
15294;BME280;7748;52.474;13.454;2023-01-29T05:34:00;102090.13;;;0.99;100.00
15294;BME280;7748;52.474;13.454;2023-01-29T05:36:27;102093.47;;;0.98;100.00
15294;BME280;7748;52.474;13.454;2023-01-29T05:38:57;102088.34;;;0.98;100.00
15294;BME280;7748;52.474;13.454;2023-01-29T05:41:25;102094.97;;;0.96;100.00
15294;BME280;7748;52.474;13.454;2023-01-29T05:43:53;102095.31;;;0.91;100.00
15294;BME280;7748;52.474;13.454;2023-01-29T05:46:20;102099.81;;;0.93;100.00
15294;BME280;7748;52.474;13.454;2023-01-29T05:48:51;102091.66;;;0.97;100.00
15294;BME280;7748;52.474;13.454;2023-01-29T05:51:18;102088.06;;;0.95;100.00
15294;BME280;7748;52.474;13.454;2023-01-29T05:53:46;102099.50;;;0.90;100.00
15294;BME280;7748;52.474;13.454;2023-01-29T05:56:15;102100.72;;;0.94;100.00
15294;BME280;7748;52.474;13.454;2023-01-29T05:58:43;102101.31;;;0.91;100.00
15294;BME280;7748;52.474;13.454;2023-01-29T06:01:14;102098.44;;;0.88;100.00
15294;BME280;7748;52.474;13.454;2023-01-29T06:03:42;102102.84;;;0.89;100.00
15294;BME280;7748;52.474;13.454;2023-01-29T06:06:10;102112.78;;;0.86;100.00
15294;BME280;7748;52.474;13.454;2023-01-29T06:08:39;102105.22;;;0.88;100.00
15294;BME280;7748;52.474;13.454;2023-01-29T06:11:08;102108.34;;;1.02;100.00
15294;BME280;7748;52.474;13.454;2023-01-29T06:13:38;102115.44;;;0.96;100.00
15294;BME280;7748;52.474;13.454;2023-01-29T06:16:07;102116.66;;;0.91;100.00
15294;BME280;7748;52.474;13.454;2023-01-29T06:18:36;102120.56;;;0.96;100.00
15294;BME280;7748;52.474;13.454;2023-01-29T06:21:05;102116.06;;;0.94;100.00
15294;BME280;7748;52.474;13.454;2023-01-29T06:23:33;102115.25;;;1.03;100.00
15294;BME280;7748;52.474;13.454;2023-01-29T06:26:02;102106.88;;;0.96;100.00
15294;BME280;7748;52.474;13.454;2023-01-29T06:28:30;102111.84;;;0.94;100.00
15294;BME280;7748;52.474;13.454;2023-01-29T06:31:01;102103.44;;;0.95;100.00
15294;BME280;7748;52.474;13.454;2023-01-29T06:33:48;102097.72;;;0.89;100.00
15294;BME280;7748;52.474;13.454;2023-01-29T06:36:16;102094.53;;;1.00;100.00
15294;BME280;7748;52.474;13.454;2023-01-29T06:38:44;102104.28;;;1.04;100.00
15294;BME280;7748;52.474;13.454;2023-01-29T06:41:16;102092.81;;;1.10;100.00
15294;BME280;7748;52.474;13.454;2023-01-29T06:43:45;102091.50;;;1.04;100.00
15294;BME280;7748;52.474;13.454;2023-01-29T06:46:14;102096.72;;;1.15;100.00
15294;BME280;7748;52.474;13.454;2023-01-29T06:48:42;102105.91;;;1.13;100.00
15294;BME280;7748;52.474;13.454;2023-01-29T06:51:10;102112.09;;;1.06;100.00
15294;BME280;7748;52.474;13.454;2023-01-29T06:53:38;102102.72;;;1.15;100.00
15294;BME280;7748;52.474;13.454;2023-01-29T06:56:07;102102.88;;;1.17;100.00
15294;BME280;7748;52.474;13.454;2023-01-29T06:58:36;102109.34;;;1.13;100.00
15294;BME280;7748;52.474;13.454;2023-01-29T07:01:05;102098.19;;;1.21;100.00
15294;BME280;7748;52.474;13.454;2023-01-29T07:03:34;102101.78;;;1.23;100.00
15294;BME280;7748;52.474;13.454;2023-01-29T07:06:03;102095.91;;;1.24;100.00
15294;BME280;7748;52.474;13.454;2023-01-29T07:08:35;102092.19;;;1.21;100.00
15294;BME280;7748;52.474;13.454;2023-01-29T07:11:03;102097.09;;;1.28;100.00
15294;BME280;7748;52.474;13.454;2023-01-29T07:13:31;102098.16;;;1.30;100.00
15294;BME280;7748;52.474;13.454;2023-01-29T07:15:59;102091.13;;;1.19;100.00
15294;BME280;7748;52.474;13.454;2023-01-29T07:18:28;102091.06;;;1.27;100.00
15294;BME280;7748;52.474;13.454;2023-01-29T07:20:57;102083.38;;;1.27;100.00
15294;BME280;7748;52.474;13.454;2023-01-29T07:23:27;102084.84;;;1.34;100.00
15294;BME280;7748;52.474;13.454;2023-01-29T07:25:54;102076.72;;;1.38;100.00
15294;BME280;7748;52.474;13.454;2023-01-29T07:28:22;102087.91;;;1.30;100.00
15294;BME280;7748;52.474;13.454;2023-01-29T07:30:55;102086.38;;;1.32;100.00
15294;BME280;7748;52.474;13.454;2023-01-29T07:33:23;102093.28;;;1.42;100.00
15294;BME280;7748;52.474;13.454;2023-01-29T07:35:51;102089.50;;;1.38;100.00
15294;BME280;7748;52.474;13.454;2023-01-29T07:38:21;102091.88;;;1.45;100.00
15294;BME280;7748;52.474;13.454;2023-01-29T07:40:50;102092.66;;;1.44;100.00
15294;BME280;7748;52.474;13.454;2023-01-29T07:43:18;102082.69;;;1.47;100.00
15294;BME280;7748;52.474;13.454;2023-01-29T07:45:46;102077.41;;;1.46;100.00
15294;BME280;7748;52.474;13.454;2023-01-29T07:48:13;102077.22;;;1.53;100.00
15294;BME280;7748;52.474;13.454;2023-01-29T07:50:41;102073.44;;;1.58;100.00
15294;BME280;7748;52.474;13.454;2023-01-29T07:53:12;102068.13;;;1.65;100.00
15294;BME280;7748;52.474;13.454;2023-01-29T07:55:44;102047.94;;;1.60;100.00
15294;BME280;7748;52.474;13.454;2023-01-29T07:58:11;102046.16;;;1.59;100.00
15294;BME280;7748;52.474;13.454;2023-01-29T08:00:39;102051.56;;;1.62;100.00
15294;BME280;7748;52.474;13.454;2023-01-29T08:03:10;102061.53;;;1.59;100.00
15294;BME280;7748;52.474;13.454;2023-01-29T08:05:38;102065.97;;;1.70;100.00
15294;BME280;7748;52.474;13.454;2023-01-29T08:08:08;102066.72;;;1.69;100.00
15294;BME280;7748;52.474;13.454;2023-01-29T08:10:37;102047.31;;;1.62;100.00
15294;BME280;7748;52.474;13.454;2023-01-29T08:13:07;102046.53;;;1.72;100.00
15294;BME280;7748;52.474;13.454;2023-01-29T08:15:35;102045.06;;;1.65;100.00
15294;BME280;7748;52.474;13.454;2023-01-29T08:18:05;102053.63;;;1.66;100.00
15294;BME280;7748;52.474;13.454;2023-01-29T08:20:33;102055.31;;;1.65;100.00
15294;BME280;7748;52.474;13.454;2023-01-29T08:23:02;102058.81;;;1.76;100.00
15294;BME280;7748;52.474;13.454;2023-01-29T08:25:31;102063.25;;;1.68;100.00
15294;BME280;7748;52.474;13.454;2023-01-29T08:27:59;102055.50;;;1.58;100.00
15294;BME280;7748;52.474;13.454;2023-01-29T08:30:30;102038.91;;;1.63;100.00
15294;BME280;7748;52.474;13.454;2023-01-29T08:32:59;102043.66;;;1.69;100.00
15294;BME280;7748;52.474;13.454;2023-01-29T08:35:27;102048.25;;;1.63;100.00
15294;BME280;7748;52.474;13.454;2023-01-29T08:37:56;102043.13;;;1.63;100.00
15294;BME280;7748;52.474;13.454;2023-01-29T08:40:25;102046.00;;;1.76;100.00
15294;BME280;7748;52.474;13.454;2023-01-29T08:42:57;102044.78;;;1.81;100.00
15294;BME280;7748;52.474;13.454;2023-01-29T08:45:30;102048.09;;;1.80;100.00
15294;BME280;7748;52.474;13.454;2023-01-29T08:47:58;102042.34;;;1.83;100.00
15294;BME280;7748;52.474;13.454;2023-01-29T08:50:26;102052.59;;;1.83;100.00
15294;BME280;7748;52.474;13.454;2023-01-29T08:52:56;102055.88;;;1.91;100.00
15294;BME280;7748;52.474;13.454;2023-01-29T08:55:25;102046.50;;;1.91;100.00
15294;BME280;7748;52.474;13.454;2023-01-29T08:57:53;102050.53;;;1.98;100.00
15294;BME280;7748;52.474;13.454;2023-01-29T09:00:22;102041.03;;;1.97;100.00
15294;BME280;7748;52.474;13.454;2023-01-29T09:02:52;102040.41;;;1.99;100.00
15294;BME280;7748;52.474;13.454;2023-01-29T09:05:22;102032.59;;;1.98;100.00
15294;BME280;7748;52.474;13.454;2023-01-29T09:07:50;102034.94;;;2.05;100.00
15294;BME280;7748;52.474;13.454;2023-01-29T09:10:19;102033.69;;;2.10;100.00
15294;BME280;7748;52.474;13.454;2023-01-29T09:12:47;102033.97;;;1.94;100.00
15294;BME280;7748;52.474;13.454;2023-01-29T09:15:15;102027.09;;;2.03;100.00
15294;BME280;7748;52.474;13.454;2023-01-29T09:17:45;102036.09;;;2.08;100.00
15294;BME280;7748;52.474;13.454;2023-01-29T09:20:16;102036.03;;;2.17;100.00
15294;BME280;7748;52.474;13.454;2023-01-29T09:22:45;102040.25;;;2.17;100.00
15294;BME280;7748;52.474;13.454;2023-01-29T09:25:12;102030.41;;;2.21;100.00
15294;BME280;7748;52.474;13.454;2023-01-29T09:27:41;102032.59;;;2.27;100.00
15294;BME280;7748;52.474;13.454;2023-01-29T09:30:10;102041.97;;;2.26;100.00
15294;BME280;7748;52.474;13.454;2023-01-29T09:32:38;102038.63;;;2.27;100.00
15294;BME280;7748;52.474;13.454;2023-01-29T09:35:22;102037.09;;;2.29;100.00
15294;BME280;7748;52.474;13.454;2023-01-29T09:37:50;102035.56;;;2.31;100.00
15294;BME280;7748;52.474;13.454;2023-01-29T09:40:23;102036.94;;;2.47;100.00
15294;BME280;7748;52.474;13.454;2023-01-29T09:42:57;102028.59;;;2.49;100.00
15294;BME280;7748;52.474;13.454;2023-01-29T09:45:29;102016.56;;;2.59;100.00
15294;BME280;7748;52.474;13.454;2023-01-29T09:47:58;102009.78;;;2.59;100.00
15294;BME280;7748;52.474;13.454;2023-01-29T09:50:30;101998.75;;;2.60;100.00
15294;BME280;7748;52.474;13.454;2023-01-29T09:53:04;102004.44;;;2.77;100.00
15294;BME280;7748;52.474;13.454;2023-01-29T09:55:38;101999.06;;;2.84;100.00
15294;BME280;7748;52.474;13.454;2023-01-29T09:58:13;101989.81;;;2.76;100.00
15294;BME280;7748;52.474;13.454;2023-01-29T10:00:50;101989.31;;;2.80;100.00
15294;BME280;7748;52.474;13.454;2023-01-29T10:06:30;101972.91;;;2.88;100.00
15294;BME280;7748;52.474;13.454;2023-01-29T10:09:26;101985.75;;;2.98;100.00
15294;BME280;7748;52.474;13.454;2023-01-29T10:12:11;101987.66;;;3.01;100.00
15294;BME280;7748;52.474;13.454;2023-01-29T10:14:46;101974.22;;;3.13;100.00
15294;BME280;7748;52.474;13.454;2023-01-29T10:17:28;101971.63;;;3.24;100.00
15294;BME280;7748;52.474;13.454;2023-01-29T10:20:16;101958.00;;;3.25;100.00
15294;BME280;7748;52.474;13.454;2023-01-29T10:23:06;101958.53;;;3.31;100.00
15294;BME280;7748;52.474;13.454;2023-01-29T10:25:43;101970.09;;;3.26;100.00
15294;BME280;7748;52.474;13.454;2023-01-29T10:28:16;101970.56;;;3.52;100.00
15294;BME280;7748;52.474;13.454;2023-01-29T10:30:47;101977.63;;;3.55;100.00
15294;BME280;7748;52.474;13.454;2023-01-29T10:33:21;101984.19;;;3.51;100.00
15294;BME280;7748;52.474;13.454;2023-01-29T10:35:55;101978.53;;;3.45;100.00
15294;BME280;7748;52.474;13.454;2023-01-29T10:38:36;101980.47;;;3.48;100.00
15294;BME280;7748;52.474;13.454;2023-01-29T10:41:18;101978.88;;;3.70;100.00
15294;BME280;7748;52.474;13.454;2023-01-29T10:43:57;101970.28;;;3.70;100.00
15294;BME280;7748;52.474;13.454;2023-01-29T10:46:37;101967.16;;;3.84;100.00
15294;BME280;7748;52.474;13.454;2023-01-29T10:49:17;101960.88;;;3.80;100.00
15294;BME280;7748;52.474;13.454;2023-01-29T10:51:59;101964.72;;;3.86;100.00
15294;BME280;7748;52.474;13.454;2023-01-29T10:54:48;101952.47;;;3.93;100.00
15294;BME280;7748;52.474;13.454;2023-01-29T10:57:24;101949.63;;;4.00;100.00
15294;BME280;7748;52.474;13.454;2023-01-29T11:00:06;101949.75;;;4.02;100.00
15294;BME280;7748;52.474;13.454;2023-01-29T11:02:42;101927.28;;;3.99;100.00
15294;BME280;7748;52.474;13.454;2023-01-29T11:05:18;101926.72;;;4.04;100.00
15294;BME280;7748;52.474;13.454;2023-01-29T11:07:47;101923.31;;;3.93;100.00
15294;BME280;7748;52.474;13.454;2023-01-29T11:10:18;101929.03;;;4.11;100.00
15294;BME280;7748;52.474;13.454;2023-01-29T11:12:49;101917.88;;;4.22;100.00
15294;BME280;7748;52.474;13.454;2023-01-29T11:15:19;101917.84;;;4.32;100.00
15294;BME280;7748;52.474;13.454;2023-01-29T11:18:07;101908.16;;;4.40;100.00
15294;BME280;7748;52.474;13.454;2023-01-29T11:20:39;101907.97;;;4.49;100.00
15294;BME280;7748;52.474;13.454;2023-01-29T11:23:24;101904.56;;;4.60;100.00
15294;BME280;7748;52.474;13.454;2023-01-29T11:25:55;101898.75;;;4.62;100.00
15294;BME280;7748;52.474;13.454;2023-01-29T11:28:38;101896.84;;;4.60;100.00
15294;BME280;7748;52.474;13.454;2023-01-29T11:31:21;101897.28;;;4.66;100.00
15294;BME280;7748;52.474;13.454;2023-01-29T11:33:53;101886.22;;;4.67;100.00
15294;BME280;7748;52.474;13.454;2023-01-29T11:36:31;101886.59;;;4.72;100.00
15294;BME280;7748;52.474;13.454;2023-01-29T11:39:12;101886.66;;;4.61;100.00
15294;BME280;7748;52.474;13.454;2023-01-29T11:41:44;101878.16;;;4.62;100.00
15294;BME280;7748;52.474;13.454;2023-01-29T11:44:25;101869.28;;;4.59;100.00
15294;BME280;7748;52.474;13.454;2023-01-29T11:46:55;101877.16;;;4.60;100.00
15294;BME280;7748;52.474;13.454;2023-01-29T11:49:33;101864.84;;;4.68;100.00
15294;BME280;7748;52.474;13.454;2023-01-29T11:52:04;101863.69;;;4.53;100.00
15294;BME280;7748;52.474;13.454;2023-01-29T11:54:36;101860.56;;;4.57;100.00
15294;BME280;7748;52.474;13.454;2023-01-29T11:57:21;101864.41;;;4.62;100.00
15294;BME280;7748;52.474;13.454;2023-01-29T11:59:51;101863.06;;;4.67;100.00
15294;BME280;7748;52.474;13.454;2023-01-29T12:02:24;101860.72;;;4.70;100.00
15294;BME280;7748;52.474;13.454;2023-01-29T12:04:54;101855.78;;;4.73;100.00
15294;BME280;7748;52.474;13.454;2023-01-29T12:07:23;101856.50;;;4.82;100.00
15294;BME280;7748;52.474;13.454;2023-01-29T12:09:53;101847.91;;;4.94;100.00
15294;BME280;7748;52.474;13.454;2023-01-29T12:12:38;101842.19;;;4.86;100.00
15294;BME280;7748;52.474;13.454;2023-01-29T12:15:20;101828.16;;;4.71;100.00
15294;BME280;7748;52.474;13.454;2023-01-29T12:17:56;101827.63;;;4.87;100.00
15294;BME280;7748;52.474;13.454;2023-01-29T12:20:32;101817.00;;;4.94;100.00
15294;BME280;7748;52.474;13.454;2023-01-29T12:23:10;101821.94;;;4.91;100.00
15294;BME280;7748;52.474;13.454;2023-01-29T12:25:46;101815.28;;;4.82;100.00
15294;BME280;7748;52.474;13.454;2023-01-29T12:28:41;101815.41;;;4.72;100.00
15294;BME280;7748;52.474;13.454;2023-01-29T12:31:20;101815.22;;;4.81;100.00
15294;BME280;7748;52.474;13.454;2023-01-29T12:33:52;101816.56;;;4.88;100.00
15294;BME280;7748;52.474;13.454;2023-01-29T12:36:25;101810.94;;;4.81;100.00
15294;BME280;7748;52.474;13.454;2023-01-29T12:38:55;101807.81;;;4.85;100.00
15294;BME280;7748;52.474;13.454;2023-01-29T12:41:29;101795.63;;;4.83;100.00
15294;BME280;7748;52.474;13.454;2023-01-29T12:44:07;101778.38;;;4.82;100.00
15294;BME280;7748;52.474;13.454;2023-01-29T12:46:42;101785.06;;;4.68;100.00
15294;BME280;7748;52.474;13.454;2023-01-29T12:49:16;101782.97;;;4.74;100.00
15294;BME280;7748;52.474;13.454;2023-01-29T12:51:53;101787.88;;;4.71;100.00
15294;BME280;7748;52.474;13.454;2023-01-29T12:54:32;101782.81;;;4.61;100.00
15294;BME280;7748;52.474;13.454;2023-01-29T12:57:08;101784.88;;;4.43;100.00
15294;BME280;7748;52.474;13.454;2023-01-29T12:59:44;101791.38;;;4.38;100.00
15294;BME280;7748;52.474;13.454;2023-01-29T13:02:23;101789.47;;;4.35;100.00
15294;BME280;7748;52.474;13.454;2023-01-29T13:04:59;101786.88;;;4.35;100.00
15294;BME280;7748;52.474;13.454;2023-01-29T13:07:31;101789.78;;;4.28;100.00
15294;BME280;7748;52.474;13.454;2023-01-29T13:10:08;101793.38;;;4.30;100.00
15294;BME280;7748;52.474;13.454;2023-01-29T13:12:39;101781.97;;;4.38;100.00
15294;BME280;7748;52.474;13.454;2023-01-29T13:15:21;101792.59;;;4.43;100.00
15294;BME280;7748;52.474;13.454;2023-01-29T13:17:52;101773.50;;;4.39;100.00
15294;BME280;7748;52.474;13.454;2023-01-29T13:20:24;101761.66;;;4.41;100.00
15294;BME280;7748;52.474;13.454;2023-01-29T13:23:00;101767.00;;;4.45;100.00
15294;BME280;7748;52.474;13.454;2023-01-29T13:25:30;101775.97;;;4.50;100.00